Flight Track Log - Related Links

Times and Time Zones

All times are in EDT time to prevent confusion due to time zone crossing. See the SWA3685 flight status page for this flight to view local times or setup timezone preferences in your user account.

Time Position Orientation Groundspeed Altitude Reporting Facility
EDT Latitude Longitude Course Direction KTS MPH feet Rate Location/Type
Mon 09:29:51 AM 33.4333 -111.9833 90° East 163 188 2,000  Level Phoenix TRACON
Mon 09:30:57 AM 33.4333 -111.9167 90° East 213 245 3,700 1,295 Climbing Phoenix TRACON
Mon 09:31:19 AM 33.4339 -111.9094 85° East 214 246 3,900 2,169 Climbing Albuquerque Center
Mon 09:32:20 AM 33.4647 -111.8161 68° East 266 306 6,700 3,098 Climbing Albuquerque Center
Mon 09:33:21 AM 33.5053 -111.7367 59° Northeast 281 323 10,200 2,902 Climbing Albuquerque Center
Mon 09:34:22 AM 33.5492 -111.6436 60° Northeast 325 374 12,600 2,803 Climbing Albuquerque Center
Mon 09:35:23 AM 33.5883 -111.5358 66° East 355 409 15,900 3,246 Climbing Albuquerque Center
Mon 09:36:24 AM 33.6300 -111.4247 66° East 367 422 19,200 2,951 Climbing Albuquerque Center
Mon 09:37:25 AM 33.6683 -111.3061 69° East 382 440 21,900 2,459 Climbing Albuquerque Center
Mon 09:38:26 AM 33.7050 -111.1789 71° East 404 465 24,200 2,262 Climbing Albuquerque Center
Mon 09:39:27 AM 33.7433 -111.0481 71° East 417 480 26,500 2,066 Climbing Albuquerque Center
Mon 09:40:28 AM 33.7811 -110.9122 71° East 428 493 28,400 1,967 Climbing Albuquerque Center
Mon 09:41:29 AM 33.8283 -110.7444 71° East 439 505 30,500 2,115 Climbing Albuquerque Center
Mon 09:42:30 AM 33.8689 -110.6047 71° East 444 511 32,700 1,918 Climbing Albuquerque Center
Mon 09:43:31 AM 33.9078 -110.4653 71° East 442 509 34,400 1,574 Climbing Albuquerque Center
Mon 09:44:32 AM 33.9425 -110.3381 72° East 442 509 35,900 1,279 Climbing Albuquerque Center
Mon 09:45:33 AM 33.9828 -110.1989 71° East 443 510 37,000 541 Climbing Albuquerque Center
Mon 09:46:34 AM 34.0253 -110.0489 71° East 442 509 37,000  Level Albuquerque Center
Mon 09:47:35 AM 34.0675 -109.8947 72° East 436 502 37,000  Level Albuquerque Center
Mon 09:48:37 AM 34.1044 -109.7639 71° East 432 497 37,000  Level Albuquerque Center
Mon 09:49:38 AM 34.1464 -109.6092 72° East 434 499 37,000  Level Albuquerque Center
Mon 09:50:39 AM 34.1819 -109.4756 72° East 436 502 37,000  Level Albuquerque Center
Mon 09:51:40 AM 34.2183 -109.3461 71° East 434 499 37,000  Level Albuquerque Center
Mon 09:52:41 AM 34.2558 -109.2061 72° East 437 503 37,000  Level Albuquerque Center
Mon 09:53:42 AM 34.2931 -109.0667 72° East 438 504 37,000  Level Albuquerque Center
Mon 09:54:43 AM 34.3392 -108.8964 72° East 440 506 37,000  Level Albuquerque Center
Mon 09:55:45 AM 34.3747 -108.7600 72° East 442 509 37,000 -98 Level Albuquerque Center
Mon 09:56:46 AM 34.4103 -108.6253 72° East 442 509 36,800 -1,180 Descending Albuquerque Center
Mon 09:57:47 AM 34.4525 -108.4636 72° East 447 514 34,600 -2,311 Descending Albuquerque Center
Mon 09:58:48 AM 34.4864 -108.3336 72° East 449 517 32,100 -2,311 Descending Albuquerque Center
Mon 09:59:49 AM 34.5244 -108.1933 72° East 442 509 29,900 -2,146 Descending Albuquerque Center
Mon 10:00:51 AM 34.5589 -108.0564 73° East 431 496 27,700 -2,049 Descending Albuquerque Center
Mon 10:01:52 AM 34.5928 -107.9244 73° East 416 479 25,700 -1,967 Descending Albuquerque Center
Mon 10:02:53 AM 34.6269 -107.7981 72° East 401 461 23,700 -2,146 Descending Albuquerque Center
Mon 10:03:55 AM 34.6858 -107.6608 62° Northeast 387 445 21,300 -2,077 Descending Albuquerque Center
Mon 10:05:03 AM 34.7364 -107.5361 64° Northeast 369 425 19,200 -1,770 Descending Albuquerque Center
Mon 10:05:57 AM 34.7792 -107.4428 61° Northeast 363 418 17,700 -1,759 Descending Albuquerque Center
Mon 10:06:59 AM 34.8244 -107.3378 62° Northeast 354 407 15,800 -1,463 Descending Albuquerque Center
Mon 10:08:00 AM 34.8658 -107.2408 62° Northeast 332 382 14,700 -1,268 Descending Albuquerque Center
Mon 10:09:02 AM 34.8969 -107.1439 69° East 325 374 13,200 -1,317 Descending Albuquerque Center
Mon 10:10:03 AM 34.8917 -107.0422 94° East 312 359 12,000 -984 Descending Albuquerque Center
Mon 10:11:04 AM 34.8864 -106.9506 94° East 293 337 11,200 -878 Descending Albuquerque Center
Mon 10:12:06 AM 34.8783 -106.8542 96° East 259 298 10,200 -976 Descending Albuquerque Center
Mon 10:13:07 AM 34.8861 -106.7931 81° East 218 251 9,200 -1,073 Descending Albuquerque Center
Mon 10:14:09 AM 34.9225 -106.7492 45° Northeast 197 227 8,000 -1,082 Descending Albuquerque Center
Mon 10:15:09 AM 34.9608 -106.7042 44° Northeast 177 204 7,000 -878 Descending Albuquerque Center
Mon 10:16:12 AM 34.9906 -106.6683 45° Northeast 176 203 6,200 -768 Descending Albuquerque Center
Mon 10:17:14 AM 35.0203 -106.6317 45° Northeast 163 188 5,400 -774 Descending Albuquerque Center
Mon 10:19:00 AM 35.0333 -106.6000 90° East  Level FlightAware

Login

Don't have an account? Register now (free) for customized features, flight alerts, and more!